sensor_id;sensor_type;location;lat;lon;timestamp;P1;durP1;ratioP1;P2;durP2;ratioP2
29202;SDS011;16245;51.170;4.884;2022-08-16T00:01:45;5.28;;;4.70;;
29202;SDS011;16245;51.170;4.884;2022-08-16T00:04:11;8.20;;;5.45;;
29202;SDS011;16245;51.170;4.884;2022-08-16T00:06:37;5.47;;;4.55;;
29202;SDS011;16245;51.170;4.884;2022-08-16T00:09:03;6.65;;;5.80;;
29202;SDS011;16245;51.170;4.884;2022-08-16T00:11:29;9.77;;;6.15;;
29202;SDS011;16245;51.170;4.884;2022-08-16T00:13:55;8.30;;;6.15;;
29202;SDS011;16245;51.170;4.884;2022-08-16T00:16:22;6.55;;;5.95;;
29202;SDS011;16245;51.170;4.884;2022-08-16T00:18:49;6.72;;;5.75;;
29202;SDS011;16245;51.170;4.884;2022-08-16T00:21:15;9.00;;;6.20;;
29202;SDS011;16245;51.170;4.884;2022-08-16T00:23:41;6.63;;;6.03;;
29202;SDS011;16245;51.170;4.884;2022-08-16T00:26:06;7.03;;;6.30;;
29202;SDS011;16245;51.170;4.884;2022-08-16T00:28:32;6.38;;;5.78;;
29202;SDS011;16245;51.170;4.884;2022-08-16T00:30:57;8.93;;;6.90;;
29202;SDS011;16245;51.170;4.884;2022-08-16T00:33:23;9.05;;;6.53;;
29202;SDS011;16245;51.170;4.884;2022-08-16T00:35:49;8.25;;;7.32;;
29202;SDS011;16245;51.170;4.884;2022-08-16T00:38:14;10.48;;;7.85;;
29202;SDS011;16245;51.170;4.884;2022-08-16T00:40:45;8.60;;;7.88;;
29202;SDS011;16245;51.170;4.884;2022-08-16T00:43:18;7.60;;;6.78;;
29202;SDS011;16245;51.170;4.884;2022-08-16T00:48:25;8.73;;;6.75;;
29202;SDS011;16245;51.170;4.884;2022-08-16T00:50:50;7.75;;;6.75;;
29202;SDS011;16245;51.170;4.884;2022-08-16T00:53:16;7.60;;;6.75;;
29202;SDS011;16245;51.170;4.884;2022-08-16T00:55:45;7.88;;;7.15;;
29202;SDS011;16245;51.170;4.884;2022-08-16T00:58:14;7.63;;;6.88;;
29202;SDS011;16245;51.170;4.884;2022-08-16T01:00:41;7.60;;;6.75;;
29202;SDS011;16245;51.170;4.884;2022-08-16T01:03:10;7.30;;;6.70;;
29202;SDS011;16245;51.170;4.884;2022-08-16T01:05:37;7.75;;;6.85;;
29202;SDS011;16245;51.170;4.884;2022-08-16T01:08:04;8.23;;;7.47;;
29202;SDS011;16245;51.170;4.884;2022-08-16T01:10:31;8.07;;;7.32;;
29202;SDS011;16245;51.170;4.884;2022-08-16T01:12:58;8.93;;;8.07;;
29202;SDS011;16245;51.170;4.884;2022-08-16T01:15:28;9.40;;;8.50;;
29202;SDS011;16245;51.170;4.884;2022-08-16T01:17:53;9.23;;;8.00;;
29202;SDS011;16245;51.170;4.884;2022-08-16T01:20:20;10.32;;;8.27;;
29202;SDS011;16245;51.170;4.884;2022-08-16T01:25:28;9.55;;;8.52;;
29202;SDS011;16245;51.170;4.884;2022-08-16T01:27:59;16.60;;;10.18;;
29202;SDS011;16245;51.170;4.884;2022-08-16T01:30:33;10.30;;;9.30;;
29202;SDS011;16245;51.170;4.884;2022-08-16T01:33:02;8.93;;;7.85;;
29202;SDS011;16245;51.170;4.884;2022-08-16T01:35:34;9.80;;;8.05;;
29202;SDS011;16245;51.170;4.884;2022-08-16T01:40:58;10.43;;;8.55;;
29202;SDS011;16245;51.170;4.884;2022-08-16T01:43:26;11.15;;;8.90;;
29202;SDS011;16245;51.170;4.884;2022-08-16T01:45:53;8.68;;;7.88;;
29202;SDS011;16245;51.170;4.884;2022-08-16T01:48:20;10.63;;;8.00;;
29202;SDS011;16245;51.170;4.884;2022-08-16T01:50:50;7.78;;;6.68;;
29202;SDS011;16245;51.170;4.884;2022-08-16T01:53:16;8.50;;;7.50;;
29202;SDS011;16245;51.170;4.884;2022-08-16T01:55:42;8.73;;;7.90;;
29202;SDS011;16245;51.170;4.884;2022-08-16T01:58:09;10.45;;;8.23;;
29202;SDS011;16245;51.170;4.884;2022-08-16T02:00:38;12.65;;;8.30;;
29202;SDS011;16245;51.170;4.884;2022-08-16T02:03:04;11.55;;;8.55;;
29202;SDS011;16245;51.170;4.884;2022-08-16T02:05:29;10.20;;;8.07;;
29202;SDS011;16245;51.170;4.884;2022-08-16T02:07:55;12.15;;;7.93;;
29202;SDS011;16245;51.170;4.884;2022-08-16T02:10:22;7.68;;;6.97;;
29202;SDS011;16245;51.170;4.884;2022-08-16T02:12:48;7.32;;;6.13;;
29202;SDS011;16245;51.170;4.884;2022-08-16T02:15:15;8.02;;;5.32;;
29202;SDS011;16245;51.170;4.884;2022-08-16T02:17:41;8.88;;;6.30;;
29202;SDS011;16245;51.170;4.884;2022-08-16T02:20:08;7.22;;;6.30;;
29202;SDS011;16245;51.170;4.884;2022-08-16T02:22:34;6.85;;;6.15;;
29202;SDS011;16245;51.170;4.884;2022-08-16T02:25:00;11.85;;;7.15;;
29202;SDS011;16245;51.170;4.884;2022-08-16T02:27:29;9.73;;;6.75;;
29202;SDS011;16245;51.170;4.884;2022-08-16T02:29:55;6.80;;;6.18;;
29202;SDS011;16245;51.170;4.884;2022-08-16T02:32:20;9.48;;;6.75;;
29202;SDS011;16245;51.170;4.884;2022-08-16T02:34:46;10.02;;;7.15;;
29202;SDS011;16245;51.170;4.884;2022-08-16T02:37:12;10.57;;;7.13;;
29202;SDS011;16245;51.170;4.884;2022-08-16T02:39:37;8.70;;;7.80;;
29202;SDS011;16245;51.170;4.884;2022-08-16T02:42:03;10.15;;;6.95;;
29202;SDS011;16245;51.170;4.884;2022-08-16T02:44:29;7.85;;;7.10;;
29202;SDS011;16245;51.170;4.884;2022-08-16T02:46:55;7.97;;;7.28;;
29202;SDS011;16245;51.170;4.884;2022-08-16T02:49:21;10.52;;;8.25;;
29202;SDS011;16245;51.170;4.884;2022-08-16T02:51:47;8.95;;;8.05;;
29202;SDS011;16245;51.170;4.884;2022-08-16T02:54:13;8.60;;;7.40;;
29202;SDS011;16245;51.170;4.884;2022-08-16T02:56:39;8.88;;;8.02;;
29202;SDS011;16245;51.170;4.884;2022-08-16T02:59:06;8.57;;;7.65;;
29202;SDS011;16245;51.170;4.884;2022-08-16T03:01:32;9.80;;;8.27;;
29202;SDS011;16245;51.170;4.884;2022-08-16T03:03:58;13.95;;;8.68;;
29202;SDS011;16245;51.170;4.884;2022-08-16T03:06:25;9.77;;;8.77;;
29202;SDS011;16245;51.170;4.884;2022-08-16T03:08:52;11.80;;;9.05;;
29202;SDS011;16245;51.170;4.884;2022-08-16T03:11:18;13.60;;;11.38;;
29202;SDS011;16245;51.170;4.884;2022-08-16T03:13:44;13.93;;;12.15;;
29202;SDS011;16245;51.170;4.884;2022-08-16T03:16:11;14.60;;;12.52;;
29202;SDS011;16245;51.170;4.884;2022-08-16T03:18:37;13.60;;;11.60;;
29202;SDS011;16245;51.170;4.884;2022-08-16T03:21:03;15.25;;;12.80;;
29202;SDS011;16245;51.170;4.884;2022-08-16T03:23:31;13.18;;;11.88;;
29202;SDS011;16245;51.170;4.884;2022-08-16T03:25:57;14.15;;;12.63;;
29202;SDS011;16245;51.170;4.884;2022-08-16T03:28:23;16.88;;;14.20;;
29202;SDS011;16245;51.170;4.884;2022-08-16T03:30:49;15.00;;;13.52;;
29202;SDS011;16245;51.170;4.884;2022-08-16T03:33:15;14.80;;;13.30;;
29202;SDS011;16245;51.170;4.884;2022-08-16T03:35:41;15.02;;;12.50;;
29202;SDS011;16245;51.170;4.884;2022-08-16T03:38:08;15.15;;;12.63;;
29202;SDS011;16245;51.170;4.884;2022-08-16T03:40:36;19.15;;;14.85;;
29202;SDS011;16245;51.170;4.884;2022-08-16T03:43:03;15.70;;;12.55;;
29202;SDS011;16245;51.170;4.884;2022-08-16T03:45:32;15.73;;;13.50;;
29202;SDS011;16245;51.170;4.884;2022-08-16T03:47:58;15.35;;;13.85;;
29202;SDS011;16245;51.170;4.884;2022-08-16T03:50:24;21.42;;;16.48;;
29202;SDS011;16245;51.170;4.884;2022-08-16T03:52:50;16.70;;;14.98;;
29202;SDS011;16245;51.170;4.884;2022-08-16T03:55:16;15.38;;;13.82;;
29202;SDS011;16245;51.170;4.884;2022-08-16T03:57:42;16.42;;;14.68;;
29202;SDS011;16245;51.170;4.884;2022-08-16T04:00:10;14.77;;;13.38;;
29202;SDS011;16245;51.170;4.884;2022-08-16T04:02:39;14.80;;;13.18;;
29202;SDS011;16245;51.170;4.884;2022-08-16T04:05:06;15.43;;;12.63;;
29202;SDS011;16245;51.170;4.884;2022-08-16T04:07:32;18.25;;;12.85;;
29202;SDS011;16245;51.170;4.884;2022-08-16T04:09:58;12.82;;;11.55;;
29202;SDS011;16245;51.170;4.884;2022-08-16T04:12:23;13.07;;;11.68;;
29202;SDS011;16245;51.170;4.884;2022-08-16T04:14:49;12.73;;;11.43;;
29202;SDS011;16245;51.170;4.884;2022-08-16T04:17:15;12.05;;;10.82;;
29202;SDS011;16245;51.170;4.884;2022-08-16T04:19:41;15.95;;;11.55;;
29202;SDS011;16245;51.170;4.884;2022-08-16T04:22:09;13.55;;;12.18;;
29202;SDS011;16245;51.170;4.884;2022-08-16T04:24:35;11.85;;;10.73;;
29202;SDS011;16245;51.170;4.884;2022-08-16T04:27:02;12.18;;;10.98;;
29202;SDS011;16245;51.170;4.884;2022-08-16T04:29:28;12.05;;;10.57;;
29202;SDS011;16245;51.170;4.884;2022-08-16T04:31:54;14.32;;;10.70;;
29202;SDS011;16245;51.170;4.884;2022-08-16T04:34:21;11.93;;;10.75;;
29202;SDS011;16245;51.170;4.884;2022-08-16T04:36:47;10.90;;;9.70;;
29202;SDS011;16245;51.170;4.884;2022-08-16T04:39:13;10.25;;;9.35;;
29202;SDS011;16245;51.170;4.884;2022-08-16T04:41:39;10.38;;;9.38;;
29202;SDS011;16245;51.170;4.884;2022-08-16T04:44:05;11.73;;;10.15;;
29202;SDS011;16245;51.170;4.884;2022-08-16T04:46:31;13.77;;;10.25;;
29202;SDS011;16245;51.170;4.884;2022-08-16T04:48:56;11.60;;;9.63;;
29202;SDS011;16245;51.170;4.884;2022-08-16T04:51:23;10.70;;;9.55;;
29202;SDS011;16245;51.170;4.884;2022-08-16T04:53:49;10.52;;;9.43;;
29202;SDS011;16245;51.170;4.884;2022-08-16T04:56:15;13.77;;;10.32;;
29202;SDS011;16245;51.170;4.884;2022-08-16T04:58:42;11.75;;;10.55;;
29202;SDS011;16245;51.170;4.884;2022-08-16T05:01:08;14.23;;;10.65;;
29202;SDS011;16245;51.170;4.884;2022-08-16T05:03:34;10.98;;;9.57;;
29202;SDS011;16245;51.170;4.884;2022-08-16T05:06:00;15.30;;;11.30;;
29202;SDS011;16245;51.170;4.884;2022-08-16T05:08:27;11.55;;;10.55;;
29202;SDS011;16245;51.170;4.884;2022-08-16T05:10:53;12.60;;;10.68;;
29202;SDS011;16245;51.170;4.884;2022-08-16T05:13:19;10.90;;;9.85;;
29202;SDS011;16245;51.170;4.884;2022-08-16T05:15:45;11.73;;;10.57;;
29202;SDS011;16245;51.170;4.884;2022-08-16T05:18:12;11.45;;;10.35;;
29202;SDS011;16245;51.170;4.884;2022-08-16T05:20:38;11.25;;;10.25;;
29202;SDS011;16245;51.170;4.884;2022-08-16T05:23:04;12.73;;;10.15;;
29202;SDS011;16245;51.170;4.884;2022-08-16T05:25:30;11.75;;;10.65;;
29202;SDS011;16245;51.170;4.884;2022-08-16T05:27:56;12.93;;;11.27;;
29202;SDS011;16245;51.170;4.884;2022-08-16T05:30:23;12.60;;;11.07;;
29202;SDS011;16245;51.170;4.884;2022-08-16T05:32:49;15.73;;;13.18;;
29202;SDS011;16245;51.170;4.884;2022-08-16T05:35:14;15.80;;;12.65;;
29202;SDS011;16245;51.170;4.884;2022-08-16T05:37:40;13.18;;;11.93;;
29202;SDS011;16245;51.170;4.884;2022-08-16T05:40:07;13.35;;;12.05;;
29202;SDS011;16245;51.170;4.884;2022-08-16T05:42:34;13.18;;;11.88;;
29202;SDS011;16245;51.170;4.884;2022-08-16T05:45:01;14.93;;;12.75;;
29202;SDS011;16245;51.170;4.884;2022-08-16T05:47:27;14.70;;;13.15;;
29202;SDS011;16245;51.170;4.884;2022-08-16T05:49:53;14.00;;;12.60;;
29202;SDS011;16245;51.170;4.884;2022-08-16T05:52:19;14.25;;;12.68;;
29202;SDS011;16245;51.170;4.884;2022-08-16T05:54:45;14.20;;;12.73;;
29202;SDS011;16245;51.170;4.884;2022-08-16T05:57:10;14.75;;;13.30;;
29202;SDS011;16245;51.170;4.884;2022-08-16T05:59:36;16.30;;;13.63;;
29202;SDS011;16245;51.170;4.884;2022-08-16T06:02:03;21.27;;;14.80;;
29202;SDS011;16245;51.170;4.884;2022-08-16T06:04:29;18.70;;;15.68;;
29202;SDS011;16245;51.170;4.884;2022-08-16T06:06:55;19.55;;;14.38;;
29202;SDS011;16245;51.170;4.884;2022-08-16T06:09:21;15.63;;;13.75;;
29202;SDS011;16245;51.170;4.884;2022-08-16T06:11:47;16.17;;;14.48;;
29202;SDS011;16245;51.170;4.884;2022-08-16T06:14:13;16.05;;;14.35;;
29202;SDS011;16245;51.170;4.884;2022-08-16T06:16:39;17.85;;;14.75;;
29202;SDS011;16245;51.170;4.884;2022-08-16T06:19:04;18.30;;;15.82;;
29202;SDS011;16245;51.170;4.884;2022-08-16T06:21:30;16.02;;;14.45;;
29202;SDS011;16245;51.170;4.884;2022-08-16T06:23:56;16.33;;;14.68;;
29202;SDS011;16245;51.170;4.884;2022-08-16T06:26:22;19.25;;;14.30;;
29202;SDS011;16245;51.170;4.884;2022-08-16T06:28:48;16.67;;;14.88;;
29202;SDS011;16245;51.170;4.884;2022-08-16T06:31:14;16.42;;;14.80;;
29202;SDS011;16245;51.170;4.884;2022-08-16T06:33:40;17.48;;;15.77;;
29202;SDS011;16245;51.170;4.884;2022-08-16T06:36:08;16.88;;;15.13;;
29202;SDS011;16245;51.170;4.884;2022-08-16T06:38:34;17.23;;;15.48;;
29202;SDS011;16245;51.170;4.884;2022-08-16T06:41:01;18.35;;;16.50;;
29202;SDS011;16245;51.170;4.884;2022-08-16T06:43:28;20.90;;;16.10;;
29202;SDS011;16245;51.170;4.884;2022-08-16T06:45:53;18.67;;;16.15;;
29202;SDS011;16245;51.170;4.884;2022-08-16T06:48:20;18.10;;;16.15;;
29202;SDS011;16245;51.170;4.884;2022-08-16T06:50:46;21.38;;;16.77;;
29202;SDS011;16245;51.170;4.884;2022-08-16T06:53:16;18.10;;;16.38;;
29202;SDS011;16245;51.170;4.884;2022-08-16T06:55:42;19.73;;;15.68;;
29202;SDS011;16245;51.170;4.884;2022-08-16T06:58:08;21.88;;;16.83;;
29202;SDS011;16245;51.170;4.884;2022-08-16T07:00:35;17.88;;;15.45;;
29202;SDS011;16245;51.170;4.884;2022-08-16T07:03:02;18.55;;;16.58;;
29202;SDS011;16245;51.170;4.884;2022-08-16T07:05:29;15.57;;;14.07;;
29202;SDS011;16245;51.170;4.884;2022-08-16T07:07:55;17.70;;;15.90;;
29202;SDS011;16245;51.170;4.884;2022-08-16T07:10:22;16.10;;;14.40;;
29202;SDS011;16245;51.170;4.884;2022-08-16T07:12:48;16.42;;;14.65;;
29202;SDS011;16245;51.170;4.884;2022-08-16T07:15:15;17.92;;;15.80;;
29202;SDS011;16245;51.170;4.884;2022-08-16T07:17:41;14.98;;;13.57;;
29202;SDS011;16245;51.170;4.884;2022-08-16T07:20:09;14.25;;;12.77;;
29202;SDS011;16245;51.170;4.884;2022-08-16T07:22:37;15.00;;;12.70;;
29202;SDS011;16245;51.170;4.884;2022-08-16T07:25:03;14.13;;;12.63;;
29202;SDS011;16245;51.170;4.884;2022-08-16T07:27:31;13.73;;;12.30;;
29202;SDS011;16245;51.170;4.884;2022-08-16T07:29:57;13.75;;;11.82;;
29202;SDS011;16245;51.170;4.884;2022-08-16T07:32:24;12.45;;;11.25;;
29202;SDS011;16245;51.170;4.884;2022-08-16T07:34:50;13.68;;;11.50;;
29202;SDS011;16245;51.170;4.884;2022-08-16T07:37:16;16.45;;;11.95;;
29202;SDS011;16245;51.170;4.884;2022-08-16T07:39:42;13.80;;;11.43;;
29202;SDS011;16245;51.170;4.884;2022-08-16T07:42:08;14.93;;;11.57;;
29202;SDS011;16245;51.170;4.884;2022-08-16T07:44:33;11.88;;;10.73;;
29202;SDS011;16245;51.170;4.884;2022-08-16T07:46:59;12.00;;;10.57;;
29202;SDS011;16245;51.170;4.884;2022-08-16T07:49:25;14.95;;;11.52;;
29202;SDS011;16245;51.170;4.884;2022-08-16T07:51:51;13.30;;;11.95;;
29202;SDS011;16245;51.170;4.884;2022-08-16T07:54:17;20.20;;;12.68;;
29202;SDS011;16245;51.170;4.884;2022-08-16T07:56:43;12.73;;;11.52;;
29202;SDS011;16245;51.170;4.884;2022-08-16T07:59:09;13.55;;;12.27;;
29202;SDS011;16245;51.170;4.884;2022-08-16T08:01:35;13.18;;;11.32;;
29202;SDS011;16245;51.170;4.884;2022-08-16T08:04:02;11.93;;;10.82;;
29202;SDS011;16245;51.170;4.884;2022-08-16T08:06:28;12.48;;;11.18;;
29202;SDS011;16245;51.170;4.884;2022-08-16T08:08:56;11.93;;;10.73;;
29202;SDS011;16245;51.170;4.884;2022-08-16T08:11:22;11.38;;;10.13;;
29202;SDS011;16245;51.170;4.884;2022-08-16T08:13:49;11.60;;;10.30;;
29202;SDS011;16245;51.170;4.884;2022-08-16T08:16:17;14.05;;;10.30;;
29202;SDS011;16245;51.170;4.884;2022-08-16T08:18:45;13.80;;;9.57;;
29202;SDS011;16245;51.170;4.884;2022-08-16T08:21:11;11.25;;;9.43;;
29202;SDS011;16245;51.170;4.884;2022-08-16T08:23:37;12.63;;;10.38;;
29202;SDS011;16245;51.170;4.884;2022-08-16T08:26:03;11.38;;;10.25;;
29202;SDS011;16245;51.170;4.884;2022-08-16T08:28:30;9.43;;;8.45;;
29202;SDS011;16245;51.170;4.884;2022-08-16T08:30:59;10.68;;;8.93;;
29202;SDS011;16245;51.170;4.884;2022-08-16T08:33:27;10.30;;;9.30;;
29202;SDS011;16245;51.170;4.884;2022-08-16T08:35:55;8.30;;;7.50;;
29202;SDS011;16245;51.170;4.884;2022-08-16T08:38:25;12.10;;;8.80;;
29202;SDS011;16245;51.170;4.884;2022-08-16T08:40:52;10.40;;;9.40;;
29202;SDS011;16245;51.170;4.884;2022-08-16T08:43:18;9.25;;;8.35;;
29202;SDS011;16245;51.170;4.884;2022-08-16T08:45:44;8.13;;;7.22;;
29202;SDS011;16245;51.170;4.884;2022-08-16T08:48:10;10.13;;;9.13;;
29202;SDS011;16245;51.170;4.884;2022-08-16T08:50:36;13.57;;;8.60;;
29202;SDS011;16245;51.170;4.884;2022-08-16T08:53:02;13.30;;;7.45;;
29202;SDS011;16245;51.170;4.884;2022-08-16T08:55:28;8.30;;;7.25;;
29202;SDS011;16245;51.170;4.884;2022-08-16T08:57:55;10.15;;;7.70;;
29202;SDS011;16245;51.170;4.884;2022-08-16T09:00:22;8.57;;;7.15;;
29202;SDS011;16245;51.170;4.884;2022-08-16T09:02:48;14.02;;;8.13;;
29202;SDS011;16245;51.170;4.884;2022-08-16T09:05:15;8.75;;;7.95;;
29202;SDS011;16245;51.170;4.884;2022-08-16T09:07:42;10.05;;;7.55;;
29202;SDS011;16245;51.170;4.884;2022-08-16T09:10:09;9.60;;;7.60;;
29202;SDS011;16245;51.170;4.884;2022-08-16T09:12:35;8.52;;;6.18;;
29202;SDS011;16245;51.170;4.884;2022-08-16T09:15:02;8.40;;;7.50;;
29202;SDS011;16245;51.170;4.884;2022-08-16T09:17:30;10.68;;;7.13;;
29202;SDS011;16245;51.170;4.884;2022-08-16T09:19:55;11.15;;;7.57;;
29202;SDS011;16245;51.170;4.884;2022-08-16T09:22:22;8.43;;;7.63;;
29202;SDS011;16245;51.170;4.884;2022-08-16T09:24:49;11.82;;;7.38;;
29202;SDS011;16245;51.170;4.884;2022-08-16T09:27:15;9.48;;;7.47;;
29202;SDS011;16245;51.170;4.884;2022-08-16T09:29:41;8.80;;;7.25;;
29202;SDS011;16245;51.170;4.884;2022-08-16T09:32:07;13.30;;;6.32;;
29202;SDS011;16245;51.170;4.884;2022-08-16T09:34:32;10.50;;;7.20;;
29202;SDS011;16245;51.170;4.884;2022-08-16T09:36:58;7.22;;;6.50;;
29202;SDS011;16245;51.170;4.884;2022-08-16T09:39:24;7.10;;;6.50;;
29202;SDS011;16245;51.170;4.884;2022-08-16T09:41:51;12.13;;;6.82;;
29202;SDS011;16245;51.170;4.884;2022-08-16T09:44:20;10.43;;;6.47;;
29202;SDS011;16245;51.170;4.884;2022-08-16T09:46:51;7.03;;;6.32;;
29202;SDS011;16245;51.170;4.884;2022-08-16T09:49:18;10.98;;;6.35;;
29202;SDS011;16245;51.170;4.884;2022-08-16T09:51:44;7.72;;;5.70;;
29202;SDS011;16245;51.170;4.884;2022-08-16T09:54:11;6.95;;;5.40;;
29202;SDS011;16245;51.170;4.884;2022-08-16T09:56:39;9.93;;;5.95;;
29202;SDS011;16245;51.170;4.884;2022-08-16T09:59:07;6.22;;;4.70;;
29202;SDS011;16245;51.170;4.884;2022-08-16T10:01:34;6.63;;;4.93;;
29202;SDS011;16245;51.170;4.884;2022-08-16T10:04:00;7.43;;;4.70;;
29202;SDS011;16245;51.170;4.884;2022-08-16T10:06:26;6.03;;;4.30;;
29202;SDS011;16245;51.170;4.884;2022-08-16T10:08:52;6.43;;;4.63;;
29202;SDS011;16245;51.170;4.884;2022-08-16T10:11:18;5.68;;;4.25;;
29202;SDS011;16245;51.170;4.884;2022-08-16T10:14:03;9.02;;;4.70;;
29202;SDS011;16245;51.170;4.884;2022-08-16T10:16:29;7.15;;;4.45;;
29202;SDS011;16245;51.170;4.884;2022-08-16T10:18:55;5.32;;;4.40;;
29202;SDS011;16245;51.170;4.884;2022-08-16T10:21:20;5.90;;;4.20;;
29202;SDS011;16245;51.170;4.884;2022-08-16T10:23:47;5.80;;;4.68;;
29202;SDS011;16245;51.170;4.884;2022-08-16T10:26:13;11.52;;;4.75;;
29202;SDS011;16245;51.170;4.884;2022-08-16T10:28:40;6.63;;;5.05;;
29202;SDS011;16245;51.170;4.884;2022-08-16T10:31:06;7.47;;;4.50;;
29202;SDS011;16245;51.170;4.884;2022-08-16T10:33:34;9.38;;;4.53;;
29202;SDS011;16245;51.170;4.884;2022-08-16T10:36:01;5.05;;;4.32;;
29202;SDS011;16245;51.170;4.884;2022-08-16T10:38:32;6.88;;;4.88;;
29202;SDS011;16245;51.170;4.884;2022-08-16T10:40:59;9.02;;;4.85;;
29202;SDS011;16245;51.170;4.884;2022-08-16T10:43:24;9.02;;;5.00;;
29202;SDS011;16245;51.170;4.884;2022-08-16T10:45:50;5.80;;;4.82;;
29202;SDS011;16245;51.170;4.884;2022-08-16T10:48:16;9.65;;;4.88;;
29202;SDS011;16245;51.170;4.884;2022-08-16T10:50:42;7.18;;;5.47;;
29202;SDS011;16245;51.170;4.884;2022-08-16T10:53:08;10.35;;;4.88;;
29202;SDS011;16245;51.170;4.884;2022-08-16T10:55:38;9.90;;;5.43;;
29202;SDS011;16245;51.170;4.884;2022-08-16T10:58:07;7.00;;;4.82;;
29202;SDS011;16245;51.170;4.884;2022-08-16T11:00:35;10.27;;;5.18;;
29202;SDS011;16245;51.170;4.884;2022-08-16T11:03:03;7.65;;;4.93;;
29202;SDS011;16245;51.170;4.884;2022-08-16T11:05:31;6.22;;;5.07;;
29202;SDS011;16245;51.170;4.884;2022-08-16T11:08:03;9.32;;;4.75;;
29202;SDS011;16245;51.170;4.884;2022-08-16T11:10:31;7.88;;;5.05;;
29202;SDS011;16245;51.170;4.884;2022-08-16T11:13:00;5.50;;;4.85;;
29202;SDS011;16245;51.170;4.884;2022-08-16T11:15:26;10.02;;;4.97;;
29202;SDS011;16245;51.170;4.884;2022-08-16T11:17:52;8.27;;;4.93;;
29202;SDS011;16245;51.170;4.884;2022-08-16T11:20:19;6.65;;;4.72;;
29202;SDS011;16245;51.170;4.884;2022-08-16T11:22:46;6.35;;;4.30;;
29202;SDS011;16245;51.170;4.884;2022-08-16T11:25:14;7.25;;;5.63;;
29202;SDS011;16245;51.170;4.884;2022-08-16T11:27:42;7.68;;;5.18;;
29202;SDS011;16245;51.170;4.884;2022-08-16T11:30:09;6.85;;;5.43;;
29202;SDS011;16245;51.170;4.884;2022-08-16T11:32:37;5.30;;;4.53;;
29202;SDS011;16245;51.170;4.884;2022-08-16T11:35:06;6.28;;;4.78;;
29202;SDS011;16245;51.170;4.884;2022-08-16T11:37:33;5.13;;;4.63;;
29202;SDS011;16245;51.170;4.884;2022-08-16T11:40:01;7.53;;;4.90;;
29202;SDS011;16245;51.170;4.884;2022-08-16T11:42:29;6.20;;;4.72;;
29202;SDS011;16245;51.170;4.884;2022-08-16T11:44:55;5.68;;;4.82;;
29202;SDS011;16245;51.170;4.884;2022-08-16T11:47:21;10.32;;;5.88;;
29202;SDS011;16245;51.170;4.884;2022-08-16T11:49:47;7.10;;;5.00;;
29202;SDS011;16245;51.170;4.884;2022-08-16T11:52:13;11.55;;;5.53;;
29202;SDS011;16245;51.170;4.884;2022-08-16T11:54:41;8.07;;;6.00;;
29202;SDS011;16245;51.170;4.884;2022-08-16T11:57:08;6.75;;;4.70;;
29202;SDS011;16245;51.170;4.884;2022-08-16T11:59:34;9.13;;;4.82;;
29202;SDS011;16245;51.170;4.884;2022-08-16T12:02:02;4.68;;;4.20;;
29202;SDS011;16245;51.170;4.884;2022-08-16T12:04:30;6.35;;;4.22;;
29202;SDS011;16245;51.170;4.884;2022-08-16T12:07:00;6.03;;;4.38;;
29202;SDS011;16245;51.170;4.884;2022-08-16T12:09:27;7.30;;;4.50;;
29202;SDS011;16245;51.170;4.884;2022-08-16T12:11:54;7.03;;;5.88;;
29202;SDS011;16245;51.170;4.884;2022-08-16T12:14:21;8.18;;;5.70;;
29202;SDS011;16245;51.170;4.884;2022-08-16T12:16:47;7.60;;;5.10;;
29202;SDS011;16245;51.170;4.884;2022-08-16T12:19:13;6.90;;;5.68;;
29202;SDS011;16245;51.170;4.884;2022-08-16T12:21:39;7.93;;;4.80;;
29202;SDS011;16245;51.170;4.884;2022-08-16T12:24:05;6.47;;;4.90;;
29202;SDS011;16245;51.170;4.884;2022-08-16T12:26:32;7.78;;;4.93;;
29202;SDS011;16245;51.170;4.884;2022-08-16T12:28:58;7.88;;;5.40;;
29202;SDS011;16245;51.170;4.884;2022-08-16T12:31:27;6.63;;;4.85;;
29202;SDS011;16245;51.170;4.884;2022-08-16T12:33:53;6.78;;;5.10;;
29202;SDS011;16245;51.170;4.884;2022-08-16T12:36:19;7.65;;;4.72;;
29202;SDS011;16245;51.170;4.884;2022-08-16T12:38:46;5.22;;;4.75;;
29202;SDS011;16245;51.170;4.884;2022-08-16T12:41:12;6.63;;;5.13;;
29202;SDS011;16245;51.170;4.884;2022-08-16T12:43:40;6.80;;;5.05;;
29202;SDS011;16245;51.170;4.884;2022-08-16T12:46:08;11.68;;;5.30;;
29202;SDS011;16245;51.170;4.884;2022-08-16T12:48:36;5.88;;;5.18;;
29202;SDS011;16245;51.170;4.884;2022-08-16T12:51:21;10.15;;;4.80;;
29202;SDS011;16245;51.170;4.884;2022-08-16T12:53:52;5.75;;;4.88;;
29202;SDS011;16245;51.170;4.884;2022-08-16T12:56:20;5.88;;;5.28;;
29202;SDS011;16245;51.170;4.884;2022-08-16T12:58:49;7.10;;;5.97;;
29202;SDS011;16245;51.170;4.884;2022-08-16T13:01:16;9.88;;;5.40;;
29202;SDS011;16245;51.170;4.884;2022-08-16T13:03:43;6.00;;;4.47;;
29202;SDS011;16245;51.170;4.884;2022-08-16T13:06:09;5.45;;;4.95;;
29202;SDS011;16245;51.170;4.884;2022-08-16T13:08:36;6.13;;;5.53;;
29202;SDS011;16245;51.170;4.884;2022-08-16T13:11:02;7.40;;;5.68;;
29202;SDS011;16245;51.170;4.884;2022-08-16T13:13:29;10.38;;;6.40;;
29202;SDS011;16245;51.170;4.884;2022-08-16T13:15:59;6.93;;;5.10;;
29202;SDS011;16245;51.170;4.884;2022-08-16T13:18:28;8.60;;;4.78;;
29202;SDS011;16245;51.170;4.884;2022-08-16T13:20:55;6.68;;;5.25;;
29202;SDS011;16245;51.170;4.884;2022-08-16T13:23:22;6.45;;;5.85;;
29202;SDS011;16245;51.170;4.884;2022-08-16T13:25:48;5.22;;;4.72;;
29202;SDS011;16245;51.170;4.884;2022-08-16T13:28:15;6.20;;;5.60;;
29202;SDS011;16245;51.170;4.884;2022-08-16T13:30:46;9.48;;;5.57;;
29202;SDS011;16245;51.170;4.884;2022-08-16T13:33:15;10.40;;;5.68;;
29202;SDS011;16245;51.170;4.884;2022-08-16T13:35:44;5.53;;;5.03;;
29202;SDS011;16245;51.170;4.884;2022-08-16T13:38:11;7.88;;;6.05;;
29202;SDS011;16245;51.170;4.884;2022-08-16T13:40:37;8.73;;;5.40;;
29202;SDS011;16245;51.170;4.884;2022-08-16T13:43:03;6.55;;;5.07;;
29202;SDS011;16245;51.170;4.884;2022-08-16T13:45:29;5.45;;;4.95;;
29202;SDS011;16245;51.170;4.884;2022-08-16T13:47:54;6.82;;;4.82;;
29202;SDS011;16245;51.170;4.884;2022-08-16T13:50:20;8.32;;;4.78;;
29202;SDS011;16245;51.170;4.884;2022-08-16T13:52:46;5.50;;;4.97;;
29202;SDS011;16245;51.170;4.884;2022-08-16T13:55:12;9.63;;;5.22;;
29202;SDS011;16245;51.170;4.884;2022-08-16T13:57:37;5.88;;;5.03;;
29202;SDS011;16245;51.170;4.884;2022-08-16T14:00:04;7.63;;;4.80;;
29202;SDS011;16245;51.170;4.884;2022-08-16T14:02:33;6.78;;;4.97;;
29202;SDS011;16245;51.170;4.884;2022-08-16T14:04:59;6.50;;;5.40;;
29202;SDS011;16245;51.170;4.884;2022-08-16T14:07:25;5.85;;;5.28;;
29202;SDS011;16245;51.170;4.884;2022-08-16T14:09:50;8.85;;;5.45;;
29202;SDS011;16245;51.170;4.884;2022-08-16T14:12:21;6.60;;;6.00;;
29202;SDS011;16245;51.170;4.884;2022-08-16T14:14:49;6.32;;;5.13;;
29202;SDS011;16245;51.170;4.884;2022-08-16T14:17:15;6.75;;;5.55;;
29202;SDS011;16245;51.170;4.884;2022-08-16T14:19:43;10.80;;;5.32;;
29202;SDS011;16245;51.170;4.884;2022-08-16T14:22:13;5.47;;;4.93;;
29202;SDS011;16245;51.170;4.884;2022-08-16T14:24:44;7.03;;;5.28;;
29202;SDS011;16245;51.170;4.884;2022-08-16T14:27:13;7.40;;;5.30;;
29202;SDS011;16245;51.170;4.884;2022-08-16T14:29:41;11.75;;;5.82;;
29202;SDS011;16245;51.170;4.884;2022-08-16T14:32:06;8.35;;;5.28;;
29202;SDS011;16245;51.170;4.884;2022-08-16T14:34:32;5.45;;;4.95;;
29202;SDS011;16245;51.170;4.884;2022-08-16T14:36:58;6.07;;;5.45;;
29202;SDS011;16245;51.170;4.884;2022-08-16T14:39:24;6.15;;;5.32;;
29202;SDS011;16245;51.170;4.884;2022-08-16T14:41:49;5.20;;;4.70;;